Time;durP1;ratioP1;P1;durP2;ratioP2;P2;SDS_P1;SDS_P2;PMS_P1;PMS_P2;Temp;Humidity;BMP_temperature;BMP_pressure;BME280_temperature;BME280_humidity;BME280_pressure;Samples;Min_cycle;Max_cycle;Signal;HPM_P1;HPM_P2
2024/02/02 00:52:10;;;;;;;29.50;17.80;;;;;;;-147.86;100.00;13198.52;102439;1294;603339;-58
2024/02/02 00:54:40;;;;;;;36.10;19.40;;;;;;;-147.86;100.00;6008.27;104900;1272;60900;-58
2024/02/02 00:57:08;;;;;;;32.00;18.20;;;;;;;-147.86;100.00;10593.34;104858;1270;60149;-58
2024/02/02 00:59:35;;;;;;;34.30;18.90;;;;;;;-147.86;100.00;12913.03;104898;1272;72224;-51
2024/02/02 01:02:01;;;;;;;32.90;18.50;;;;;;;-147.86;100.00;14631.95;104984;1270;64668;-56
2024/02/02 01:04:29;;;;;;;45.10;19.80;;;;;;;-147.86;100.00;15946.83;104749;1270;212039;-58
2024/02/02 01:06:56;;;;;;;30.20;18.20;;;;;;;-147.86;100.00;17029.54;105160;1270;61972;-59
2024/02/02 01:09:23;;;;;;;37.10;18.60;;;;;;;-147.86;100.00;17893.10;105145;1268;59362;-61
2024/02/02 01:11:53;;;;;;;38.70;19.20;;;;;;;-147.86;100.00;18496.54;105210;1264;72271;-59
2024/02/02 01:14:21;;;;;;;36.10;18.90;;;;;;;-147.86;100.00;18612.27;105144;1267;64652;-60
2024/02/02 01:16:48;;;;;;;32.80;17.50;;;;;;;-147.86;100.00;19377.61;104938;1269;72490;-59
2024/02/02 01:19:15;;;;;;;35.10;17.30;;;;;;;-147.86;100.00;19873.43;105129;1269;61189;-59
2024/02/02 01:21:42;;;;;;;29.50;17.10;;;;;;;-147.86;100.00;20158.76;105198;1270;61062;-61
2024/02/02 01:24:09;;;;;;;33.20;17.60;;;;;;;-147.86;100.00;20312.10;105149;1270;72996;-55
2024/02/02 01:26:36;;;;;;;32.30;17.80;;;;;;;-147.86;100.00;20179.74;105220;1269;64666;-58
2024/02/02 01:29:03;;;;;;;28.20;16.90;;;;;;;-147.86;100.00;19874.93;105133;1268;72523;-57
2024/02/02 01:31:32;;;;;;;27.30;15.70;;;;;;;-147.86;100.00;19439.88;105155;1269;61019;-56
2024/02/02 01:33:59;;;;;;;27.70;16.70;;;;;;;-147.86;100.00;19433.97;105173;1267;60161;-59
2024/02/02 01:36:27;;;;;;;25.00;16.00;;;;;;;-147.86;100.00;19173.20;105168;1269;73035;-58
2024/02/02 01:38:54;;;;;;;31.60;18.20;;;;;;;-147.86;100.00;18923.76;105598;1259;64667;-58
2024/02/02 01:41:21;;;;;;;28.70;16.60;;;;;;;-147.86;100.00;18767.31;105584;1261;72612;-57
2024/02/02 01:43:48;;;;;;;28.40;16.80;;;;;;;-147.86;100.00;18663.42;105613;1261;61035;-60
2024/02/02 01:46:15;;;;;;;25.60;16.30;;;;;;;-147.86;100.00;18623.34;105669;1260;60717;-58
2024/02/02 01:48:41;;;;;;;26.90;16.40;;;;;;;-147.86;100.00;18570.42;105575;1260;72180;-55
2024/02/02 01:51:09;;;;;;;32.20;18.80;;;;;;;-147.86;100.00;18513.24;105557;1270;64397;-60
2024/02/02 01:53:36;;;;;;;27.40;17.20;;;;;;;-147.86;100.00;18482.11;105517;1257;72709;-61
2024/02/02 01:56:04;;;;;;;28.30;14.80;;;;;;;-147.86;100.00;18552.14;105536;1262;60055;-57
2024/02/02 01:58:31;;;;;;;27.70;16.40;;;;;;;-147.86;100.00;18598.91;105536;1263;59574;-59
2024/02/02 02:00:58;;;;;;;25.20;16.00;;;;;;;-147.86;100.00;18955.69;105540;1262;73631;-60
2024/02/02 02:03:25;;;;;;;30.90;18.20;;;;;;;-147.86;100.00;19079.04;105257;1264;64525;-61
2024/02/02 02:05:52;;;;;;;28.20;16.80;;;;;;;-147.86;100.00;19137.43;105522;1261;72659;-58
2024/02/02 02:08:19;;;;;;;26.50;16.50;;;;;;;-147.86;100.00;19276.38;105533;1270;61156;-60
2024/02/02 02:10:46;;;;;;;27.30;16.10;;;;;;;-147.86;100.00;19402.45;105598;1259;60243;-61
2024/02/02 02:13:14;;;;;;;30.70;17.10;;;;;;;-147.86;100.00;19357.33;105543;1263;73107;-61
2024/02/02 02:15:41;;;;;;;30.10;16.80;;;;;;;-147.86;100.00;19380.26;105528;1264;64761;-59
2024/02/02 02:18:08;;;;;;;26.70;16.70;;;;;;;-147.86;100.00;19233.93;105603;1262;72507;-58
2024/02/02 02:20:38;;;;;;;29.80;15.40;;;;;;;-147.86;100.00;18766.62;105563;1261;61047;-58
2024/02/02 02:23:05;;;;;;;26.80;14.60;;;;;;;-147.86;100.00;18651.04;105619;1257;60053;-57
2024/02/02 02:25:32;;;;;;;26.70;15.70;;;;;;;-147.86;100.00;18606.61;105271;1264;73485;-58
2024/02/02 02:27:59;;;;;;;25.50;15.80;;;;;;;-147.86;100.00;18482.88;105549;1261;63157;-58
2024/02/02 02:30:26;;;;;;;25.30;15.70;;;;;;;-147.86;100.00;18470.43;105564;1263;72596;-59
2024/02/02 02:32:53;;;;;;;28.00;17.00;;;;;;;-147.86;100.00;18494.18;105475;1270;61171;-57
2024/02/02 02:35:20;;;;;;;24.30;15.10;;;;;;;-147.86;100.00;18598.87;105532;1263;60262;-58
2024/02/02 02:37:47;;;;;;;31.90;16.50;;;;;;;-147.86;100.00;18790.30;105523;1257;73000;-60
2024/02/02 02:40:14;;;;;;;24.70;15.50;;;;;;;-147.86;100.00;18884.47;105504;1264;64734;-60
2024/02/02 02:42:41;;;;;;;27.90;16.20;;;;;;;-147.86;100.00;18733.09;105276;1266;72646;-57
2024/02/02 02:45:09;;;;;;;23.80;14.00;;;;;;;-147.86;100.00;18579.76;105486;1262;59654;-59
2024/02/02 02:47:37;;;;;;;30.40;16.00;;;;;;;-147.86;100.00;18254.50;105269;1258;59679;-58
2024/02/02 02:50:05;;;;;;;29.80;15.80;;;;;;;-147.86;100.00;18039.35;105543;1263;73033;-57
2024/02/02 02:52:32;;;;;;;25.10;14.80;;;;;;;-147.86;100.00;17697.76;105512;1263;64679;-57
2024/02/02 02:54:59;;;;;;;24.90;15.00;;;;;;;-147.86;100.00;17458.47;105538;1257;72638;-57
2024/02/02 02:57:26;;;;;;;23.10;14.60;;;;;;;-147.86;100.00;17093.60;105551;1262;60305;-56
2024/02/02 02:59:53;;;;;;;25.00;14.60;;;;;;;-147.86;100.00;16836.90;105588;1263;59762;-58
2024/02/02 03:02:21;;;;;;;26.50;16.00;;;;;;;-147.86;100.00;16554.59;105502;1258;73051;-59
2024/02/02 03:04:48;;;;;;;30.40;14.10;;;;;;;-147.86;100.00;16788.33;105605;1257;64547;-58
2024/02/02 03:07:14;;;;;;;26.90;15.30;;;;;;;-147.86;100.00;17019.35;105534;1257;72603;-59
2024/02/02 03:09:42;;;;;;;26.80;15.20;;;;;;;-147.86;100.00;17171.45;105693;1260;59762;-60
2024/02/02 03:12:09;;;;;;;28.10;15.40;;;;;;;-147.86;100.00;17392.80;105657;1254;60334;-58
2024/02/02 03:14:36;;;;;;;26.70;14.80;;;;;;;-147.86;100.00;17756.52;105635;1259;72838;-58
2024/02/02 03:17:04;;;;;;;29.30;14.80;;;;;;;-147.86;100.00;17988.77;105651;1260;64597;-57
2024/02/02 03:19:31;;;;;;;22.80;14.70;;;;;;;-147.86;100.00;18130.82;105652;1254;72602;-59
2024/02/02 03:21:58;;;;;;;24.50;13.60;;;;;;;-147.86;100.00;18414.41;105658;1261;59810;-60
2024/02/02 03:24:27;;;;;;;28.20;14.80;;;;;;;-147.86;100.00;18546.32;105697;1254;61264;-57
2024/02/02 03:26:54;;;;;;;26.80;15.10;;;;;;;-147.86;100.00;18677.55;105762;1254;72703;-60
2024/02/02 03:29:21;;;;;;;25.20;15.10;;;;;;;-147.86;100.00;19400.18;105697;1259;64720;-59
2024/02/02 03:31:50;;;;;;;21.60;13.90;;;;;;;-147.86;100.00;19611.18;105640;1259;72452;-59
2024/02/02 03:34:17;;;;;;;24.30;14.80;;;;;;;-147.86;100.00;20029.90;105671;1259;59641;-60
2024/02/02 03:36:44;;;;;;;24.70;14.30;;;;;;;-147.86;100.00;20191.45;105665;1255;60259;-58
2024/02/02 03:39:12;;;;;;;24.10;14.30;;;;;;;-147.86;100.00;20466.30;105620;1260;72976;-57
2024/02/02 03:41:39;;;;;;;21.30;13.20;;;;;;;-147.86;100.00;20661.80;105657;1259;64665;-58
2024/02/02 03:44:06;;;;;;;22.30;13.30;;;;;;;-147.86;100.00;21160.49;105625;1254;72594;-54
2024/02/02 03:46:33;;;;;;;20.60;13.70;;;;;;;-147.86;100.00;21543.27;105669;1260;59771;-58
2024/02/02 03:49:00;;;;;;;21.30;13.30;;;;;;;-147.86;100.00;21838.05;105695;1254;60057;-57
2024/02/02 03:51:27;;;;;;;22.00;13.40;;;;;;;-147.86;100.00;21868.42;105644;1254;71975;-61
2024/02/02 03:53:55;;;;;;;19.50;12.60;;;;;;;-147.86;100.00;21791.69;105659;1255;66194;-60
2024/02/02 03:56:22;;;;;;;18.70;12.10;;;;;;;-147.86;100.00;21764.45;105665;1257;72587;-59
2024/02/02 03:58:49;;;;;;;23.00;12.90;;;;;;;-147.86;100.00;21795.58;105673;1260;59648;-58
2024/02/02 04:01:16;;;;;;;26.40;13.80;;;;;;;-147.86;100.00;21568.91;105710;1254;60514;-59
2024/02/02 04:03:43;;;;;;;19.40;12.70;;;;;;;-147.86;100.00;21260.91;105662;1258;72878;-59
2024/02/02 04:06:10;;;;;;;20.90;12.30;;;;;;;-147.86;100.00;20877.76;105674;1258;64677;-59
2024/02/02 04:08:37;;;;;;;22.90;12.30;;;;;;;-147.86;100.00;20285.60;105739;1254;72506;-59
2024/02/02 04:11:07;;;;;;;22.00;12.10;;;;;;;-147.86;100.00;19439.80;105695;1254;59788;-60
2024/02/02 04:13:34;;;;;;;26.80;13.60;;;;;;;-147.86;100.00;18678.61;105670;1260;59561;-59
2024/02/02 04:16:01;;;;;;;22.10;12.40;;;;;;;-147.86;100.00;18194.93;105639;1259;73069;-55
2024/02/02 04:18:28;;;;;;;20.00;12.00;;;;;;;-147.86;100.00;17681.36;105623;1259;65070;-57
2024/02/02 04:20:55;;;;;;;19.40;11.60;;;;;;;-147.86;100.00;17067.51;105615;1254;72719;-57
2024/02/02 04:23:25;;;;;;;24.70;11.50;;;;;;;-147.86;100.00;16282.66;105692;1258;59849;-59
2024/02/02 04:25:52;;;;;;;21.20;12.50;;;;;;;-147.86;100.00;15142.69;105665;1254;60296;-56
2024/02/02 04:28:19;;;;;;;21.20;11.60;;;;;;;-147.86;100.00;14762.02;105634;1257;73135;-60
2024/02/02 04:30:45;;;;;;;19.90;12.20;;;;;;;-147.86;100.00;14211.97;105741;1258;64728;-59
2024/02/02 04:33:13;;;;;;;18.90;12.20;;;;;;;-147.86;100.00;13465.37;105649;1254;72502;-60
2024/02/02 04:35:40;;;;;;;23.40;11.30;;;;;;;-147.86;100.00;12470.27;105669;1259;61134;-61
2024/02/02 04:38:07;;;;;;;20.90;10.20;;;;;;;-147.86;100.00;11553.46;105591;1254;60195;-58
2024/02/02 04:40:34;;;;;;;25.90;12.30;;;;;;;-147.86;100.00;10722.34;105685;1255;72975;-56
2024/02/02 04:43:01;;;;;;;18.40;11.20;;;;;;;-147.86;100.00;10045.14;105692;1260;64658;-57
2024/02/02 04:45:28;;;;;;;20.60;11.70;;;;;;;-147.86;100.00;9581.21;105692;1254;72657;-57
2024/02/02 04:47:55;;;;;;;18.40;10.40;;;;;;;-147.86;100.00;9462.83;105649;1258;61171;-61
2024/02/02 04:50:25;;;;;;;23.80;11.60;;;;;;;-147.86;100.00;9696.93;105656;1258;60167;-56
2024/02/02 04:52:52;;;;;;;17.60;10.10;;;;;;;-147.86;100.00;9408.15;105683;1254;73093;-61
2024/02/02 04:55:19;;;;;;;19.90;11.50;;;;;;;-147.86;100.00;9534.63;105602;1259;64505;-58
2024/02/02 04:57:47;;;;;;;20.60;10.60;;;;;;;-147.86;100.00;9371.22;105661;1254;72654;-59
2024/02/02 05:00:14;;;;;;;18.40;10.80;;;;;;;-147.86;100.00;9562.60;105691;1259;61161;-58
2024/02/02 05:02:42;;;;;;;22.10;11.10;;;;;;;-147.86;100.00;9848.78;105728;1255;60476;-59
2024/02/02 05:05:09;;;;;;;23.90;11.30;;;;;;;-147.86;100.00;10434.69;105645;1254;73772;-61
2024/02/02 05:07:36;;;;;;;20.10;11.10;;;;;;;-147.86;100.00;11199.35;105680;1260;64622;-60
2024/02/02 05:10:06;;;;;;;22.60;11.10;;;;;;;-147.86;100.00;11750.50;105687;1254;72690;-59
2024/02/02 05:12:34;;;;;;;26.00;10.40;;;;;;;-147.86;100.00;11922.76;105724;1254;61489;-58
2024/02/02 05:15:01;;;;;;;23.90;11.60;;;;;;;-147.86;100.00;12813.44;105708;1254;60473;-58
2024/02/02 05:17:29;;;;;;;22.70;11.30;;;;;;;-147.86;100.00;13288.30;105622;1258;73844;-56
2024/02/02 05:19:56;;;;;;;20.60;11.00;;;;;;;-147.86;100.00;13657.43;105675;1260;64595;-59
2024/02/02 05:22:23;;;;;;;18.70;11.10;;;;;;;-147.86;100.00;13850.98;105611;1254;72657;-61
2024/02/02 05:24:50;;;;;;;25.20;11.00;;;;;;;-147.86;100.00;14129.25;105650;1254;60390;-57
2024/02/02 05:27:17;;;;;;;19.40;10.90;;;;;;;-147.86;100.00;14222.92;105649;1254;60431;-60
2024/02/02 05:29:45;;;;;;;19.10;10.30;;;;;;;-147.86;100.00;14329.03;105641;1259;73811;-61
2024/02/02 05:32:12;;;;;;;20.90;10.80;;;;;;;-147.86;100.00;14696.03;105635;1258;64678;-58
2024/02/02 05:34:40;;;;;;;15.50;9.80;;;;;;;-147.86;100.00;15214.62;105656;1254;72636;-57
2024/02/02 05:37:08;;;;;;;19.80;11.10;;;;;;;-147.86;100.00;15419.56;105659;1258;60463;-58
2024/02/02 05:39:35;;;;;;;25.20;11.30;;;;;;;-147.86;100.00;15693.62;105609;1254;60480;-53
2024/02/02 05:42:02;;;;;;;21.20;10.60;;;;;;;-147.86;100.00;15935.08;105517;1254;73817;-58
2024/02/02 05:44:29;;;;;;;23.60;12.00;;;;;;;-147.86;100.00;15832.41;105621;1257;64685;-57
2024/02/02 05:46:56;;;;;;;19.60;10.30;;;;;;;-147.86;100.00;15472.31;105682;1258;72612;-60
2024/02/02 05:49:23;;;;;;;19.80;9.00;;;;;;;-147.86;100.00;15078.85;105619;1257;60396;-57
2024/02/02 05:51:51;;;;;;;21.50;8.80;;;;;;;-147.86;100.00;14783.04;105676;1254;60549;-58
2024/02/02 05:54:18;;;;;;;19.80;10.10;;;;;;;-147.86;100.00;14517.94;105641;1254;74250;-57
2024/02/02 05:56:45;;;;;;;28.70;9.90;;;;;;;-147.86;100.00;14440.57;105700;1257;64678;-57
2024/02/02 05:59:12;;;;;;;16.90;9.80;;;;;;;-147.86;100.00;14100.06;105662;1257;72544;-59
2024/02/02 06:01:39;;;;;;;20.30;9.80;;;;;;;-147.86;100.00;13865.70;105639;1257;60450;-58
2024/02/02 06:04:07;;;;;;;19.40;10.00;;;;;;;-147.86;100.00;13718.42;105675;1254;60653;-59
2024/02/02 06:06:34;;;;;;;18.50;10.10;;;;;;;-147.86;100.00;13515.19;105760;1255;73810;-57
2024/02/02 06:09:02;;;;;;;17.40;10.10;;;;;;;-147.86;100.00;13297.54;105691;1256;64654;-58
2024/02/02 06:11:29;;;;;;;18.80;9.60;;;;;;;-147.86;100.00;12959.11;105640;1253;72580;-57
2024/02/02 06:13:57;;;;;;;16.00;8.80;;;;;;;-147.86;100.00;12939.28;105662;1257;61112;-59
2024/02/02 06:16:25;;;;;;;18.60;9.40;;;;;;;-147.86;100.00;12867.43;105639;1254;60476;-59
2024/02/02 06:18:54;;;;;;;17.70;9.50;;;;;;;-147.86;100.00;12639.74;105641;1254;73876;-57
2024/02/02 06:21:21;;;;;;;17.10;9.20;;;;;;;-147.86;100.00;12204.99;105708;1257;64661;-59
2024/02/02 06:23:48;;;;;;;15.70;8.90;;;;;;;-147.86;100.00;11827.33;105667;1254;72684;-58
2024/02/02 06:26:15;;;;;;;15.40;8.40;;;;;;;-147.86;100.00;11097.09;105658;1259;60839;-60
2024/02/02 06:28:41;;;;;;;24.10;9.70;;;;;;;-147.86;100.00;10033.85;105702;1253;60364;-58
2024/02/02 06:31:08;;;;;;;14.80;8.20;;;;;;;-147.86;100.00;8828.45;105703;1254;73845;-59
2024/02/02 06:33:35;;;;;;;18.00;8.40;;;;;;;-147.86;100.00;7512.85;105678;1259;64663;-61
2024/02/02 06:36:03;;;;;;;20.40;9.20;;;;;;;-147.86;100.00;6247.75;105649;1254;72745;-57
2024/02/02 06:38:30;;;;;;;17.80;8.60;;;;;;;-147.86;100.00;5029.20;105654;1259;61023;-61
2024/02/02 06:40:57;;;;;;;20.00;8.40;;;;;;;-147.86;100.00;3766.44;105674;1254;60528;-60
2024/02/02 06:44:35;;;;;;;16.40;8.90;;;;;;;-147.86;100.00;-10362.02;102670;1290;600190;-59
2024/02/02 06:47:05;;;;;;;15.50;7.70;;;;;;;-147.86;100.00;-17609.17;104815;1272;59245;-59
2024/02/02 06:49:32;;;;;;;18.20;8.40;;;;;;;-147.86;100.00;-17609.17;104861;1271;59315;-57
2024/02/02 06:52:00;;;;;;;20.60;8.60;;;;;;;-147.86;100.00;-17609.17;104783;1272;72243;-56
2024/02/02 06:54:28;;;;;;;16.20;8.50;;;;;;;-147.86;100.00;-17609.17;104793;1272;63134;-57
2024/02/02 06:56:56;;;;;;;15.40;7.60;;;;;;;-147.86;100.00;-17571.97;104770;1270;71397;-59
2024/02/02 06:59:23;;;;;;;15.60;7.50;;;;;;;-147.86;100.00;-17301.92;104658;1271;199632;-57
2024/02/02 07:01:51;;;;;;;15.30;7.30;;;;;;;-147.86;100.00;-16941.92;105481;1262;59363;-57
2024/02/02 07:04:19;;;;;;;18.90;7.30;;;;;;;-147.86;100.00;-16613.42;105455;1261;70645;-59
2024/02/02 07:06:47;;;;;;;17.40;7.30;;;;;;;-147.86;100.00;-16388.22;105479;1261;63128;-61
2024/02/02 07:09:18;;;;;;;15.30;7.40;;;;;;;-147.86;100.00;-16271.39;105500;1262;72579;-59
2024/02/02 07:12:02;;;;;;;11.20;6.60;;;;;;;-147.86;100.00;-16341.95;105493;1257;59670;-59
2024/02/02 07:14:47;;;;;;;12.80;5.80;;;;;;;-147.86;100.00;-16996.67;105524;1261;59638;-55
2024/02/02 07:17:36;;;;;;;15.00;7.10;;;;;;;-147.86;100.00;-17526.58;105514;1263;71833;-56
2024/02/02 07:20:23;;;;;;;16.30;6.20;;;;;;;-147.86;100.00;-17609.17;105604;1262;64408;-59
2024/02/02 07:22:52;;;;;;;10.30;6.30;;;;;;;-147.86;100.00;-17609.17;105505;1261;71477;-58
2024/02/02 07:25:21;;;;;;;11.30;5.50;;;;;;;-147.86;100.00;-17609.17;105558;1257;59749;-58
2024/02/02 07:27:55;;;;;;;20.50;7.00;;;;;;;-147.86;100.00;-17609.17;105480;1262;60002;-61
2024/02/02 07:30:43;;;;;;;23.20;6.90;;;;;;;-147.86;100.00;-17609.17;105317;1263;75758;-57
2024/02/02 07:33:36;;;;;;;10.80;6.60;;;;;;;-147.86;100.00;-17609.17;105491;1263;66382;-59
2024/02/02 07:36:05;;;;;;;11.60;6.20;;;;;;;-147.86;100.00;-17609.17;105532;1262;72909;-57
2024/02/02 07:38:44;;;;;;;17.70;6.30;;;;;;;-147.86;100.00;-17609.17;105454;1262;61935;-60
2024/02/02 07:41:15;;;;;;;16.30;7.20;;;;;;;-147.86;100.00;-17609.17;105539;1258;60770;-54
2024/02/02 07:43:43;;;;;;;22.60;7.80;;;;;;;-147.86;100.00;-17609.17;105513;1263;74912;-58
2024/02/02 07:46:11;;;;;;;15.50;6.10;;;;;;;-147.86;100.00;-17609.17;105584;1271;66297;-56
2024/02/02 07:48:43;;;;;;;13.30;6.20;;;;;;;-147.86;100.00;-17609.17;105504;1263;71598;-59
2024/02/02 07:51:11;;;;;;;14.40;6.40;;;;;;;-147.86;100.00;-17609.17;105529;1261;61553;-60
2024/02/02 07:53:40;;;;;;;12.50;6.90;;;;;;;-147.86;100.00;-17609.17;105536;1262;59705;-61
2024/02/02 07:56:08;;;;;;;18.10;6.30;;;;;;;-147.86;100.00;-17609.17;105491;1263;73343;-57
2024/02/02 07:58:36;;;;;;;13.10;5.90;;;;;;;-147.86;100.00;-17609.17;105461;1267;63183;-59
2024/02/02 08:01:04;;;;;;;11.40;6.10;;;;;;;-147.86;100.00;-17609.17;105443;1264;74904;-56
2024/02/02 08:03:32;;;;;;;15.60;6.50;;;;;;;-147.86;100.00;-17609.17;105464;1262;59667;-60
2024/02/02 08:51:58;;;;;;;18.50;7.10;;;;;;;-147.86;100.00;-17609.17;102780;1295;600244;-57
2024/02/02 08:54:35;;;;;;;14.80;6.30;;;;;;;-147.86;100.00;-17609.17;105052;1269;60848;-53
2024/02/02 08:57:32;;;;;;;14.50;6.90;;;;;;;-147.86;100.00;-17609.17;105148;1269;59279;-57
2024/02/02 09:00:11;;;;;;;26.80;7.30;;;;;;;-147.86;100.00;-17609.17;105091;1264;72103;-58
2024/02/02 09:02:46;;;;;;;27.90;7.40;;;;;;;-147.86;100.00;-17609.17;105926;1257;64712;-57
2024/02/02 09:05:22;;;;;;;18.30;6.50;;;;;;;-147.86;100.00;-17609.17;105718;1257;219139;-59
2024/02/02 09:08:03;;;;;;;15.00;6.80;;;;;;;-147.86;100.00;-17609.17;105960;1251;61889;-58
2024/02/02 09:10:31;;;;;;;20.30;6.60;;;;;;;-147.86;100.00;-17609.17;106030;1251;59955;-57
2024/02/02 09:13:03;;;;;;;16.50;7.00;;;;;;;-147.86;100.00;-17609.17;105976;1251;74215;-56
2024/02/02 09:15:32;;;;;;;15.50;6.10;;;;;;;-147.86;100.00;-17609.17;105938;1256;64922;-56
2024/02/02 09:18:01;;;;;;;15.70;6.20;;;;;;;-147.86;100.00;-17609.17;105939;1251;72607;-57
2024/02/02 09:20:40;;;;;;;13.50;5.80;;;;;;;-147.86;100.00;-17609.17;105988;1257;61499;-59
2024/02/02 09:23:08;;;;;;;15.50;6.10;;;;;;;-147.86;100.00;-17609.17;105975;1250;59870;-57
2024/02/02 09:25:44;;;;;;;16.50;7.00;;;;;;;-147.86;100.00;-17609.17;105956;1251;72228;-57
2024/02/02 09:28:25;;;;;;;14.00;5.70;;;;;;;-147.86;100.00;-17609.17;105953;1257;63119;-54
2024/02/02 09:31:00;;;;;;;12.90;6.10;;;;;;;-147.86;100.00;-17609.17;105938;1251;75133;-61
2024/02/02 09:33:31;;;;;;;16.20;6.00;;;;;;;-147.86;100.00;-17609.17;105998;1253;59675;-58
2024/02/02 09:36:02;;;;;;;24.40;6.30;;;;;;;-147.86;100.00;-17609.17;105984;1255;61044;-56
2024/02/02 09:38:30;;;;;;;16.80;5.60;;;;;;;-147.86;100.00;-17609.17;106024;1257;72870;-56
2024/02/02 09:41:01;;;;;;;9.10;4.60;;;;;;;-147.86;100.00;-17609.17;105958;1254;66538;-57
2024/02/02 09:43:51;;;;;;;17.20;5.20;;;;;;;-147.86;100.00;-17609.17;105974;1251;72440;-56
2024/02/02 09:46:42;;;;;;;15.10;4.80;;;;;;;-147.86;100.00;-17609.17;105955;1256;59727;-59
2024/02/02 09:49:23;;;;;;;11.60;5.30;;;;;;;-147.86;100.00;-17609.17;106005;1253;60312;-58
2024/02/02 09:51:56;;;;;;;10.70;4.80;;;;;;;-147.86;99.95;-17609.17;105956;1256;75812;-58
2024/02/02 09:54:31;;;;;;;10.70;4.50;;;;;;;-147.86;99.34;-17609.17;105861;1256;66695;-57
2024/02/02 09:57:14;;;;;;;17.20;3.90;;;;;;;-147.86;97.11;-17609.17;105909;1255;73168;-58
2024/02/02 09:59:42;;;;;;;17.80;4.50;;;;;;;-147.86;95.13;-17609.17;105881;1254;59791;-57
2024/02/02 10:02:38;;;;;;;10.40;3.70;;;;;;;-147.86;92.42;-17609.17;105834;1254;59753;-58
2024/02/02 10:05:06;;;;;;;11.00;2.90;;;;;;;-147.86;90.31;-17609.17;105900;1254;73613;-57
2024/02/02 10:07:52;;;;;;;8.70;3.40;;;;;;;-147.86;87.10;-17609.17;105873;1254;64787;-56
2024/02/02 10:10:24;;;;;;;11.70;4.20;;;;;;;-147.86;84.34;-17609.17;105891;1254;71663;-59
2024/02/02 10:13:10;;;;;;;12.70;3.30;;;;;;;-147.86;81.53;-17609.17;105883;1260;59669;-61
2024/02/02 10:16:04;;;;;;;5.20;2.40;;;;;;;-147.86;79.51;-17608.59;105867;1256;59934;-57
2024/02/02 10:18:42;;;;;;;12.40;3.00;;;;;;;-147.86;78.75;-17015.57;105870;1253;74158;-60
2024/02/02 10:21:20;;;;;;;11.40;3.20;;;;;;;-147.86;78.34;-16620.75;105875;1257;65514;-59
2024/02/02 10:24:17;;;;;;;14.40;3.20;;;;;;;-147.86;78.27;-16620.75;105819;1257;72694;-57
2024/02/02 10:26:52;;;;;;;7.20;2.70;;;;;;;-147.86;75.50;-13015.93;105554;1256;59638;-58
2024/02/02 10:29:30;;;;;;;11.70;3.10;;;;;;;-147.86;75.09;-10495.86;105874;1256;59633;-59
2024/02/02 10:32:22;;;;;;;9.50;3.10;;;;;;;-147.86;74.46;-9457.60;105846;1259;74928;-59
2024/02/02 10:35:09;;;;;;;7.30;3.20;;;;;;;-147.86;72.63;-4559.09;105879;1252;64114;-57
2024/02/02 10:37:37;;;;;;;8.60;3.50;;;;;;;-147.86;71.83;-447.59;105946;1254;71430;-57
2024/02/02 10:40:10;;;;;;;11.40;4.00;;;;;;;-147.86;71.81;48.01;105866;1257;60140;-59
2024/02/02 10:43:19;;;;;;;14.10;3.40;;;;;;;-147.86;70.10;4860.22;105870;1254;59665;-59
2024/02/02 10:46:20;;;;;;;9.50;2.60;;;;;;;-147.86;69.50;10769.99;105857;1254;75456;-59
2024/02/02 10:49:03;;;;;;;8.30;2.70;;;;;;;-147.86;68.76;13256.27;105695;1260;64669;-59
2024/02/02 10:51:49;;;;;;;10.90;2.80;;;;;;;-147.86;67.83;19130.19;105868;1254;72766;-60
2024/02/02 10:54:40;;;;;;;11.50;2.50;;;;;;;-147.86;67.49;22718.12;105853;1260;61413;-57
2024/02/02 10:57:26;;;;;;;8.50;2.60;;;;;;;-147.86;65.69;34392.48;105893;1254;61610;-60
2024/02/02 10:59:57;;;;;;;9.80;2.60;;;;;;;-147.86;66.00;37149.82;105801;1253;73006;-60
2024/02/02 11:02:44;;;;;;;6.70;2.50;;;;;;;-147.86;68.04;22769.98;105692;1255;63096;-59
2024/02/02 11:05:27;;;;;;;8.10;2.10;;;;;;;-147.86;68.37;14251.09;105824;1257;72974;-58
2024/02/02 11:08:01;;;;;;;8.70;2.30;;;;;;;-147.86;67.61;17337.36;105880;1257;59586;-55
2024/02/02 11:10:48;;;;;;;12.50;2.70;;;;;;;-147.86;66.47;26609.29;105863;1254;61246;-58
2024/02/02 11:13:38;;;;;;;6.20;2.50;;;;;;;-147.86;67.27;21770.94;105929;1252;72679;-58
2024/02/02 11:16:40;;;;;;;10.50;2.90;;;;;;;-147.86;65.03;35337.98;105880;1260;66962;-58
2024/02/02 11:19:34;;;;;;;7.80;2.60;;;;;;;-147.86;63.07;43940.91;105898;1256;74965;-58
2024/02/02 11:22:38;;;;;;;9.60;2.90;;;;;;;-147.86;62.47;45275.45;105854;1259;59794;-58
2024/02/02 11:25:41;;;;;;;9.40;2.50;;;;;;;-147.86;61.97;45471.74;105907;1253;61840;-56
2024/02/02 11:28:38;;;;;;;7.30;2.80;;;;;;;-147.86;61.60;45865.91;105861;1254;72145;-58
2024/02/02 11:31:28;;;;;;;7.60;2.80;;;;;;;-147.86;61.32;45960.34;105896;1257;63916;-58
2024/02/02 11:34:02;;;;;;;7.70;2.80;;;;;;;-147.86;60.85;46059.48;105882;1260;71823;-61
2024/02/02 11:36:50;;;;;;;8.80;3.00;;;;;;;-147.86;60.95;46079.08;105887;1254;59697;-58
2024/02/02 11:39:18;;;;;;;8.90;2.70;;;;;;;-147.86;60.69;46088.48;105904;1252;62147;-58
2024/02/02 11:41:46;;;;;;;10.80;3.10;;;;;;;-147.86;60.78;46098.68;105859;1252;75304;-58
2024/02/02 11:44:14;;;;;;;7.70;2.90;;;;;;;-147.86;59.07;46239.36;105929;1257;64139;-58
2024/02/02 11:46:42;;;;;;;5.60;2.40;;;;;;;-147.86;58.49;46394.15;105707;1257;72934;-60
2024/02/02 11:49:11;;;;;;;9.90;3.00;;;;;;;-147.86;57.83;46480.36;105652;1259;61281;-60
2024/02/02 11:51:46;;;;;;;10.70;2.60;;;;;;;-147.86;57.56;46545.81;105807;1255;59688;-60
2024/02/02 11:54:18;;;;;;;7.20;2.80;;;;;;;-147.86;57.69;46571.29;105883;1254;74994;-58
2024/02/02 11:56:49;;;;;;;6.10;2.90;;;;;;;-147.86;58.11;46511.72;105641;1257;64821;-62
2024/02/02 11:59:30;;;;;;;9.60;2.20;;;;;;;-147.86;58.32;46505.45;105835;1256;71323;-61
2024/02/02 12:02:04;;;;;;;6.10;2.10;;;;;;;-147.86;58.15;46521.12;105548;1266;59845;-57
2024/02/02 12:04:45;;;;;;;6.20;1.60;;;;;;;-147.86;58.19;46490.95;105879;1257;60292;-60
2024/02/02 12:07:35;;;;;;;10.00;2.10;;;;;;;-147.86;58.64;46465.08;105872;1254;73123;-59
2024/02/02 12:10:05;;;;;;;4.40;1.80;;;;;;;-147.86;59.58;46356.13;105856;1257;65543;-59
2024/02/02 12:12:40;;;;;;;6.70;2.50;;;;;;;-147.86;59.66;46282.07;105874;1257;71833;-61
2024/02/02 12:15:11;;;;;;;11.50;2.70;;;;;;;-147.86;60.19;46201.73;105920;1254;61526;-59
2024/02/02 12:17:40;;;;;;;9.30;3.10;;;;;;;-147.86;60.16;46125.71;105912;1255;59653;-60
2024/02/02 12:20:10;;;;;;;14.60;3.10;;;;;;;-147.86;60.94;46012.85;105851;1257;73614;-56
2024/02/02 12:22:39;;;;;;;10.70;3.00;;;;;;;-147.86;61.30;45810.66;105956;1252;63127;-60
2024/02/02 12:25:10;;;;;;;9.70;3.50;;;;;;;-147.86;61.71;45661.77;105898;1257;73732;-57
2024/02/02 12:27:37;;;;;;;13.30;4.60;;;;;;;-147.86;62.70;45253.13;105848;1257;59753;-56
2024/02/02 12:30:09;;;;;;;12.80;4.90;;;;;;;-147.86;63.39;44446.53;105924;1253;59972;-57
2024/02/02 12:32:36;;;;;;;14.90;4.50;;;;;;;-147.86;62.84;44265.58;105696;1260;73259;-59
2024/02/02 12:35:05;;;;;;;9.00;4.10;;;;;;;-147.86;61.64;45244.50;105901;1266;64528;-60
2024/02/02 12:37:47;;;;;;;12.90;4.70;;;;;;;-147.86;61.31;45592.81;105895;1257;73150;-58
2024/02/02 12:40:16;;;;;;;11.10;3.80;;;;;;;-147.86;61.19;45621.80;105890;1257;59563;-59
2024/02/02 12:42:44;;;;;;;5.60;3.30;;;;;;;-147.86;61.05;45752.67;105953;1257;60278;-60
2024/02/02 12:45:12;;;;;;;8.40;3.50;;;;;;;-147.86;61.00;45778.53;105856;1257;73421;-58
2024/02/02 12:47:40;;;;;;;7.00;3.00;;;;;;;-147.86;61.69;45646.49;105878;1257;66594;-55
2024/02/02 12:50:14;;;;;;;10.40;3.40;;;;;;;-147.86;61.85;45470.56;105893;1254;72506;-58